sensor_id;sensor_type;location;lat;lon;timestamp;P1;durP1;ratioP1;P2;durP2;ratioP2
57561;SDS011;43397;51.530;5.974;2022-10-30T00:01:09;18.48;;;8.98;;
57561;SDS011;43397;51.530;5.974;2022-10-30T00:03:35;15.65;;;8.50;;
57561;SDS011;43397;51.530;5.974;2022-10-30T00:06:04;16.73;;;9.40;;
57561;SDS011;43397;51.530;5.974;2022-10-30T00:08:30;15.77;;;8.20;;
57561;SDS011;43397;51.530;5.974;2022-10-30T00:10:56;19.58;;;8.90;;
57561;SDS011;43397;51.530;5.974;2022-10-30T00:13:29;16.95;;;8.55;;
57561;SDS011;43397;51.530;5.974;2022-10-30T00:15:55;19.55;;;9.48;;
57561;SDS011;43397;51.530;5.974;2022-10-30T00:18:21;18.88;;;8.70;;
57561;SDS011;43397;51.530;5.974;2022-10-30T00:20:47;20.00;;;9.13;;
57561;SDS011;43397;51.530;5.974;2022-10-30T00:23:14;15.30;;;8.43;;
57561;SDS011;43397;51.530;5.974;2022-10-30T00:25:40;15.05;;;8.45;;
57561;SDS011;43397;51.530;5.974;2022-10-30T00:28:06;15.40;;;9.05;;
57561;SDS011;43397;51.530;5.974;2022-10-30T00:30:33;17.38;;;8.82;;
57561;SDS011;43397;51.530;5.974;2022-10-30T00:33:00;18.07;;;9.23;;
57561;SDS011;43397;51.530;5.974;2022-10-30T00:35:26;16.90;;;9.15;;
57561;SDS011;43397;51.530;5.974;2022-10-30T00:37:52;14.23;;;9.35;;
57561;SDS011;43397;51.530;5.974;2022-10-30T00:40:21;20.00;;;9.45;;
57561;SDS011;43397;51.530;5.974;2022-10-30T00:42:47;16.85;;;8.93;;
57561;SDS011;43397;51.530;5.974;2022-10-30T00:45:13;24.92;;;9.45;;
57561;SDS011;43397;51.530;5.974;2022-10-30T00:47:42;18.13;;;10.05;;
57561;SDS011;43397;51.530;5.974;2022-10-30T00:50:11;20.40;;;8.93;;
57561;SDS011;43397;51.530;5.974;2022-10-30T00:52:42;18.98;;;8.90;;
57561;SDS011;43397;51.530;5.974;2022-10-30T00:55:14;17.10;;;9.15;;
57561;SDS011;43397;51.530;5.974;2022-10-30T00:57:45;16.60;;;9.32;;
57561;SDS011;43397;51.530;5.974;2022-10-30T01:00:12;15.65;;;8.65;;
57561;SDS011;43397;51.530;5.974;2022-10-30T01:02:40;13.52;;;8.50;;
57561;SDS011;43397;51.530;5.974;2022-10-30T01:05:08;15.50;;;9.25;;
57561;SDS011;43397;51.530;5.974;2022-10-30T01:07:36;22.35;;;9.80;;
57561;SDS011;43397;51.530;5.974;2022-10-30T01:10:01;16.70;;;8.80;;
57561;SDS011;43397;51.530;5.974;2022-10-30T01:12:28;16.55;;;10.00;;
57561;SDS011;43397;51.530;5.974;2022-10-30T01:14:55;18.90;;;9.43;;
57561;SDS011;43397;51.530;5.974;2022-10-30T01:17:29;19.25;;;9.32;;
57561;SDS011;43397;51.530;5.974;2022-10-30T01:20:18;15.77;;;8.85;;
57561;SDS011;43397;51.530;5.974;2022-10-30T01:22:59;15.52;;;9.25;;
57561;SDS011;43397;51.530;5.974;2022-10-30T01:25:37;16.17;;;9.77;;
57561;SDS011;43397;51.530;5.974;2022-10-30T01:28:18;13.40;;;9.85;;
57561;SDS011;43397;51.530;5.974;2022-10-30T01:33:29;18.50;;;10.07;;
57561;SDS011;43397;51.530;5.974;2022-10-30T01:36:02;17.55;;;9.80;;
57561;SDS011;43397;51.530;5.974;2022-10-30T01:38:33;17.15;;;10.25;;
57561;SDS011;43397;51.530;5.974;2022-10-30T01:41:03;20.38;;;9.75;;
57561;SDS011;43397;51.530;5.974;2022-10-30T01:43:30;17.55;;;9.77;;
57561;SDS011;43397;51.530;5.974;2022-10-30T01:46:07;17.00;;;9.90;;
57561;SDS011;43397;51.530;5.974;2022-10-30T01:48:46;18.10;;;10.00;;
57561;SDS011;43397;51.530;5.974;2022-10-30T01:51:30;17.75;;;9.02;;
57561;SDS011;43397;51.530;5.974;2022-10-30T01:54:09;19.40;;;10.02;;
57561;SDS011;43397;51.530;5.974;2022-10-30T01:56:44;20.02;;;9.18;;
57561;SDS011;43397;51.530;5.974;2022-10-30T01:59:20;15.60;;;9.13;;
57561;SDS011;43397;51.530;5.974;2022-10-30T02:01:53;15.40;;;8.48;;
57561;SDS011;43397;51.530;5.974;2022-10-30T02:04:19;16.05;;;9.27;;
57561;SDS011;43397;51.530;5.974;2022-10-30T02:06:45;14.68;;;9.27;;
57561;SDS011;43397;51.530;5.974;2022-10-30T02:09:13;17.00;;;9.45;;
57561;SDS011;43397;51.530;5.974;2022-10-30T02:11:39;14.65;;;9.43;;
57561;SDS011;43397;51.530;5.974;2022-10-30T02:14:06;20.60;;;10.63;;
57561;SDS011;43397;51.530;5.974;2022-10-30T02:16:34;21.02;;;10.07;;
57561;SDS011;43397;51.530;5.974;2022-10-30T02:19:08;17.27;;;10.25;;
57561;SDS011;43397;51.530;5.974;2022-10-30T02:21:35;16.73;;;9.43;;
57561;SDS011;43397;51.530;5.974;2022-10-30T02:24:01;19.33;;;10.35;;
57561;SDS011;43397;51.530;5.974;2022-10-30T02:26:26;16.10;;;10.60;;
57561;SDS011;43397;51.530;5.974;2022-10-30T02:28:52;16.83;;;10.52;;
57561;SDS011;43397;51.530;5.974;2022-10-30T02:31:18;15.85;;;10.00;;
57561;SDS011;43397;51.530;5.974;2022-10-30T02:33:44;16.77;;;9.88;;
57561;SDS011;43397;51.530;5.974;2022-10-30T02:36:10;18.77;;;10.27;;
57561;SDS011;43397;51.530;5.974;2022-10-30T02:38:38;16.35;;;11.05;;
57561;SDS011;43397;51.530;5.974;2022-10-30T02:41:04;21.27;;;11.48;;
57561;SDS011;43397;51.530;5.974;2022-10-30T02:43:30;23.50;;;10.45;;
57561;SDS011;43397;51.530;5.974;2022-10-30T02:45:55;17.15;;;10.32;;
57561;SDS011;43397;51.530;5.974;2022-10-30T02:48:21;18.80;;;10.48;;
57561;SDS011;43397;51.530;5.974;2022-10-30T02:50:47;17.08;;;9.88;;
57561;SDS011;43397;51.530;5.974;2022-10-30T02:53:14;17.33;;;9.75;;
57561;SDS011;43397;51.530;5.974;2022-10-30T02:55:41;16.70;;;9.27;;
57561;SDS011;43397;51.530;5.974;2022-10-30T02:58:07;17.52;;;9.95;;
57561;SDS011;43397;51.530;5.974;2022-10-30T03:00:33;18.20;;;9.70;;
57561;SDS011;43397;51.530;5.974;2022-10-30T03:02:59;19.45;;;9.57;;
57561;SDS011;43397;51.530;5.974;2022-10-30T03:05:24;13.65;;;8.35;;
57561;SDS011;43397;51.530;5.974;2022-10-30T03:07:50;20.27;;;10.07;;
57561;SDS011;43397;51.530;5.974;2022-10-30T03:10:16;14.35;;;9.63;;
57561;SDS011;43397;51.530;5.974;2022-10-30T03:12:44;14.85;;;9.32;;
57561;SDS011;43397;51.530;5.974;2022-10-30T03:15:09;19.15;;;10.65;;
57561;SDS011;43397;51.530;5.974;2022-10-30T03:17:36;18.00;;;9.70;;
57561;SDS011;43397;51.530;5.974;2022-10-30T03:20:02;17.60;;;9.50;;
57561;SDS011;43397;51.530;5.974;2022-10-30T03:22:29;16.05;;;9.13;;
57561;SDS011;43397;51.530;5.974;2022-10-30T03:24:55;14.77;;;8.82;;
57561;SDS011;43397;51.530;5.974;2022-10-30T03:27:23;15.77;;;9.75;;
57561;SDS011;43397;51.530;5.974;2022-10-30T03:29:50;15.48;;;8.80;;
57561;SDS011;43397;51.530;5.974;2022-10-30T03:32:15;20.17;;;9.52;;
57561;SDS011;43397;51.530;5.974;2022-10-30T03:34:41;13.80;;;8.32;;
57561;SDS011;43397;51.530;5.974;2022-10-30T03:37:07;19.80;;;10.27;;
57561;SDS011;43397;51.530;5.974;2022-10-30T03:39:33;17.75;;;9.50;;
57561;SDS011;43397;51.530;5.974;2022-10-30T03:41:59;16.52;;;9.30;;
57561;SDS011;43397;51.530;5.974;2022-10-30T03:44:24;17.02;;;9.57;;
57561;SDS011;43397;51.530;5.974;2022-10-30T03:46:52;19.45;;;9.45;;
57561;SDS011;43397;51.530;5.974;2022-10-30T03:49:17;15.48;;;9.02;;
57561;SDS011;43397;51.530;5.974;2022-10-30T03:51:43;19.77;;;10.15;;
57561;SDS011;43397;51.530;5.974;2022-10-30T03:54:09;17.05;;;9.93;;
57561;SDS011;43397;51.530;5.974;2022-10-30T03:56:35;15.70;;;8.88;;
57561;SDS011;43397;51.530;5.974;2022-10-30T03:59:00;16.15;;;10.02;;
57561;SDS011;43397;51.530;5.974;2022-10-30T04:01:26;20.30;;;10.32;;
57561;SDS011;43397;51.530;5.974;2022-10-30T04:03:53;15.15;;;9.73;;
57561;SDS011;43397;51.530;5.974;2022-10-30T04:06:19;19.10;;;9.45;;
57561;SDS011;43397;51.530;5.974;2022-10-30T04:08:45;19.40;;;10.27;;
57561;SDS011;43397;51.530;5.974;2022-10-30T04:11:11;17.95;;;10.02;;
57561;SDS011;43397;51.530;5.974;2022-10-30T04:13:36;25.40;;;11.07;;
57561;SDS011;43397;51.530;5.974;2022-10-30T04:16:02;17.70;;;10.40;;
57561;SDS011;43397;51.530;5.974;2022-10-30T04:18:29;18.33;;;10.60;;
57561;SDS011;43397;51.530;5.974;2022-10-30T04:20:57;18.20;;;10.40;;
57561;SDS011;43397;51.530;5.974;2022-10-30T04:23:23;18.33;;;10.55;;
57561;SDS011;43397;51.530;5.974;2022-10-30T04:25:49;17.13;;;10.10;;
57561;SDS011;43397;51.530;5.974;2022-10-30T04:28:15;19.90;;;10.90;;
57561;SDS011;43397;51.530;5.974;2022-10-30T04:30:41;18.58;;;9.93;;
57561;SDS011;43397;51.530;5.974;2022-10-30T04:33:10;21.75;;;10.45;;
57561;SDS011;43397;51.530;5.974;2022-10-30T04:35:36;16.98;;;10.32;;
57561;SDS011;43397;51.530;5.974;2022-10-30T04:38:04;17.48;;;9.73;;
57561;SDS011;43397;51.530;5.974;2022-10-30T04:40:32;18.20;;;9.75;;
57561;SDS011;43397;51.530;5.974;2022-10-30T04:43:01;18.00;;;10.30;;
57561;SDS011;43397;51.530;5.974;2022-10-30T04:45:27;15.15;;;9.63;;
57561;SDS011;43397;51.530;5.974;2022-10-30T04:47:58;17.90;;;9.88;;
57561;SDS011;43397;51.530;5.974;2022-10-30T04:50:24;20.58;;;10.80;;
57561;SDS011;43397;51.530;5.974;2022-10-30T04:52:57;17.25;;;9.90;;
57561;SDS011;43397;51.530;5.974;2022-10-30T04:55:24;19.20;;;10.98;;
57561;SDS011;43397;51.530;5.974;2022-10-30T04:57:54;19.33;;;9.77;;
57561;SDS011;43397;51.530;5.974;2022-10-30T05:00:20;20.80;;;10.73;;
57561;SDS011;43397;51.530;5.974;2022-10-30T05:02:46;21.13;;;11.15;;
57561;SDS011;43397;51.530;5.974;2022-10-30T05:05:12;20.20;;;11.45;;
57561;SDS011;43397;51.530;5.974;2022-10-30T05:07:40;18.23;;;10.67;;
57561;SDS011;43397;51.530;5.974;2022-10-30T05:10:06;20.90;;;10.65;;
57561;SDS011;43397;51.530;5.974;2022-10-30T05:12:38;18.65;;;11.45;;
57561;SDS011;43397;51.530;5.974;2022-10-30T05:15:04;20.65;;;10.10;;
57561;SDS011;43397;51.530;5.974;2022-10-30T05:17:30;21.13;;;11.25;;
57561;SDS011;43397;51.530;5.974;2022-10-30T05:19:56;15.50;;;10.35;;
57561;SDS011;43397;51.530;5.974;2022-10-30T05:22:22;20.67;;;10.95;;
57561;SDS011;43397;51.530;5.974;2022-10-30T05:24:47;15.57;;;10.23;;
57561;SDS011;43397;51.530;5.974;2022-10-30T05:27:14;20.63;;;11.02;;
57561;SDS011;43397;51.530;5.974;2022-10-30T05:29:41;17.52;;;10.40;;
57561;SDS011;43397;51.530;5.974;2022-10-30T05:32:07;16.05;;;9.90;;
57561;SDS011;43397;51.530;5.974;2022-10-30T05:34:32;20.25;;;11.15;;
57561;SDS011;43397;51.530;5.974;2022-10-30T05:36:58;15.88;;;10.73;;
57561;SDS011;43397;51.530;5.974;2022-10-30T05:39:27;15.30;;;10.88;;
57561;SDS011;43397;51.530;5.974;2022-10-30T05:41:53;17.90;;;10.15;;
57561;SDS011;43397;51.530;5.974;2022-10-30T05:44:18;16.75;;;10.77;;
57561;SDS011;43397;51.530;5.974;2022-10-30T05:46:46;16.48;;;11.27;;
57561;SDS011;43397;51.530;5.974;2022-10-30T05:49:11;19.40;;;11.73;;
57561;SDS011;43397;51.530;5.974;2022-10-30T05:51:37;18.52;;;10.38;;
57561;SDS011;43397;51.530;5.974;2022-10-30T05:54:04;24.90;;;11.70;;
57561;SDS011;43397;51.530;5.974;2022-10-30T05:56:30;18.52;;;11.65;;
57561;SDS011;43397;51.530;5.974;2022-10-30T05:58:56;19.48;;;11.35;;
57561;SDS011;43397;51.530;5.974;2022-10-30T06:01:21;18.00;;;10.88;;
57561;SDS011;43397;51.530;5.974;2022-10-30T06:03:48;21.35;;;10.80;;
57561;SDS011;43397;51.530;5.974;2022-10-30T06:06:16;20.50;;;12.00;;
57561;SDS011;43397;51.530;5.974;2022-10-30T06:08:41;21.40;;;11.68;;
57561;SDS011;43397;51.530;5.974;2022-10-30T06:11:07;19.70;;;11.38;;
57561;SDS011;43397;51.530;5.974;2022-10-30T06:13:33;17.88;;;10.95;;
57561;SDS011;43397;51.530;5.974;2022-10-30T06:16:00;17.88;;;10.57;;
57561;SDS011;43397;51.530;5.974;2022-10-30T06:18:26;18.20;;;10.35;;
57561;SDS011;43397;51.530;5.974;2022-10-30T06:20:54;16.70;;;10.98;;
57561;SDS011;43397;51.530;5.974;2022-10-30T06:23:20;21.33;;;11.15;;
57561;SDS011;43397;51.530;5.974;2022-10-30T06:25:46;16.85;;;10.57;;
57561;SDS011;43397;51.530;5.974;2022-10-30T06:28:12;19.77;;;11.63;;
57561;SDS011;43397;51.530;5.974;2022-10-30T06:30:38;17.98;;;11.10;;
57561;SDS011;43397;51.530;5.974;2022-10-30T06:33:04;18.55;;;11.02;;
57561;SDS011;43397;51.530;5.974;2022-10-30T06:35:30;20.42;;;12.18;;
57561;SDS011;43397;51.530;5.974;2022-10-30T06:37:57;20.63;;;12.73;;
57561;SDS011;43397;51.530;5.974;2022-10-30T06:40:23;17.20;;;11.35;;
57561;SDS011;43397;51.530;5.974;2022-10-30T06:42:49;19.00;;;11.48;;
57561;SDS011;43397;51.530;5.974;2022-10-30T06:45:17;18.95;;;11.23;;
57561;SDS011;43397;51.530;5.974;2022-10-30T06:47:44;19.60;;;12.15;;
57561;SDS011;43397;51.530;5.974;2022-10-30T06:50:10;18.10;;;11.77;;
57561;SDS011;43397;51.530;5.974;2022-10-30T06:52:38;19.40;;;11.32;;
57561;SDS011;43397;51.530;5.974;2022-10-30T06:55:06;19.70;;;11.77;;
57561;SDS011;43397;51.530;5.974;2022-10-30T06:57:32;20.83;;;12.68;;
57561;SDS011;43397;51.530;5.974;2022-10-30T07:00:00;18.23;;;11.60;;
57561;SDS011;43397;51.530;5.974;2022-10-30T07:02:25;21.65;;;11.43;;
57561;SDS011;43397;51.530;5.974;2022-10-30T07:04:51;21.35;;;12.75;;
57561;SDS011;43397;51.530;5.974;2022-10-30T07:07:17;19.42;;;12.25;;
57561;SDS011;43397;51.530;5.974;2022-10-30T07:09:43;18.20;;;12.38;;
57561;SDS011;43397;51.530;5.974;2022-10-30T07:12:10;22.13;;;12.70;;
57561;SDS011;43397;51.530;5.974;2022-10-30T07:14:36;17.85;;;12.40;;
57561;SDS011;43397;51.530;5.974;2022-10-30T07:17:02;19.77;;;12.27;;
57561;SDS011;43397;51.530;5.974;2022-10-30T07:19:28;20.80;;;12.10;;
57561;SDS011;43397;51.530;5.974;2022-10-30T07:21:54;21.42;;;12.57;;
57561;SDS011;43397;51.530;5.974;2022-10-30T07:24:20;22.58;;;13.23;;
57561;SDS011;43397;51.530;5.974;2022-10-30T07:26:46;25.67;;;13.23;;
57561;SDS011;43397;51.530;5.974;2022-10-30T07:29:13;24.00;;;13.93;;
57561;SDS011;43397;51.530;5.974;2022-10-30T07:31:39;21.27;;;12.70;;
57561;SDS011;43397;51.530;5.974;2022-10-30T07:34:04;17.15;;;12.02;;
57561;SDS011;43397;51.530;5.974;2022-10-30T07:36:30;20.67;;;13.18;;
57561;SDS011;43397;51.530;5.974;2022-10-30T07:38:56;21.45;;;13.90;;
57561;SDS011;43397;51.530;5.974;2022-10-30T07:41:22;26.17;;;14.95;;
57561;SDS011;43397;51.530;5.974;2022-10-30T07:43:47;22.58;;;14.45;;
57561;SDS011;43397;51.530;5.974;2022-10-30T07:46:15;21.88;;;14.25;;
57561;SDS011;43397;51.530;5.974;2022-10-30T07:48:40;22.95;;;15.93;;
57561;SDS011;43397;51.530;5.974;2022-10-30T07:51:06;23.85;;;16.05;;
57561;SDS011;43397;51.530;5.974;2022-10-30T07:53:32;21.80;;;16.48;;
57561;SDS011;43397;51.530;5.974;2022-10-30T07:55:58;20.48;;;16.02;;
57561;SDS011;43397;51.530;5.974;2022-10-30T07:58:26;24.50;;;17.83;;
57561;SDS011;43397;51.530;5.974;2022-10-30T08:00:52;25.88;;;16.58;;
57561;SDS011;43397;51.530;5.974;2022-10-30T08:03:19;23.50;;;16.15;;
57561;SDS011;43397;51.530;5.974;2022-10-30T08:05:45;20.33;;;15.43;;
57561;SDS011;43397;51.530;5.974;2022-10-30T08:08:11;24.90;;;16.70;;
57561;SDS011;43397;51.530;5.974;2022-10-30T08:10:37;26.15;;;16.52;;
57561;SDS011;43397;51.530;5.974;2022-10-30T08:13:03;23.02;;;16.30;;
57561;SDS011;43397;51.530;5.974;2022-10-30T08:15:29;27.77;;;15.88;;
57561;SDS011;43397;51.530;5.974;2022-10-30T08:17:55;23.08;;;14.73;;
57561;SDS011;43397;51.530;5.974;2022-10-30T08:20:23;21.70;;;15.38;;
57561;SDS011;43397;51.530;5.974;2022-10-30T08:22:49;22.55;;;15.35;;
57561;SDS011;43397;51.530;5.974;2022-10-30T08:25:16;23.98;;;14.02;;
57561;SDS011;43397;51.530;5.974;2022-10-30T08:27:52;22.77;;;14.30;;
57561;SDS011;43397;51.530;5.974;2022-10-30T08:30:19;24.15;;;14.93;;
57561;SDS011;43397;51.530;5.974;2022-10-30T08:32:45;22.40;;;14.25;;
57561;SDS011;43397;51.530;5.974;2022-10-30T08:35:11;21.20;;;14.07;;
57561;SDS011;43397;51.530;5.974;2022-10-30T08:37:38;22.13;;;13.30;;
57561;SDS011;43397;51.530;5.974;2022-10-30T08:40:05;22.08;;;13.45;;
57561;SDS011;43397;51.530;5.974;2022-10-30T08:42:32;25.88;;;13.18;;
57561;SDS011;43397;51.530;5.974;2022-10-30T08:44:57;25.17;;;12.82;;
57561;SDS011;43397;51.530;5.974;2022-10-30T08:47:23;17.75;;;11.73;;
57561;SDS011;43397;51.530;5.974;2022-10-30T08:49:49;19.67;;;12.02;;
57561;SDS011;43397;51.530;5.974;2022-10-30T08:52:15;21.50;;;13.05;;
57561;SDS011;43397;51.530;5.974;2022-10-30T08:54:42;23.52;;;13.23;;
57561;SDS011;43397;51.530;5.974;2022-10-30T08:57:08;19.80;;;13.27;;
57561;SDS011;43397;51.530;5.974;2022-10-30T08:59:33;19.98;;;13.43;;
57561;SDS011;43397;51.530;5.974;2022-10-30T09:01:59;20.55;;;12.88;;
57561;SDS011;43397;51.530;5.974;2022-10-30T09:04:25;21.33;;;13.73;;
57561;SDS011;43397;51.530;5.974;2022-10-30T09:06:51;24.15;;;13.77;;
57561;SDS011;43397;51.530;5.974;2022-10-30T09:09:16;21.98;;;13.88;;
57561;SDS011;43397;51.530;5.974;2022-10-30T09:11:44;20.92;;;13.88;;
57561;SDS011;43397;51.530;5.974;2022-10-30T09:14:11;21.35;;;13.13;;
57561;SDS011;43397;51.530;5.974;2022-10-30T09:16:37;24.83;;;13.50;;
57561;SDS011;43397;51.530;5.974;2022-10-30T09:19:03;21.60;;;12.68;;
57561;SDS011;43397;51.530;5.974;2022-10-30T09:21:29;21.38;;;13.30;;
57561;SDS011;43397;51.530;5.974;2022-10-30T09:23:54;19.50;;;13.02;;
57561;SDS011;43397;51.530;5.974;2022-10-30T09:26:20;22.65;;;14.32;;
57561;SDS011;43397;51.530;5.974;2022-10-30T09:28:47;20.85;;;14.45;;
57561;SDS011;43397;51.530;5.974;2022-10-30T09:31:13;21.88;;;15.10;;
57561;SDS011;43397;51.530;5.974;2022-10-30T09:33:39;21.13;;;14.48;;
57561;SDS011;43397;51.530;5.974;2022-10-30T09:36:05;20.75;;;14.55;;
57561;SDS011;43397;51.530;5.974;2022-10-30T09:38:31;23.33;;;15.05;;
57561;SDS011;43397;51.530;5.974;2022-10-30T09:41:02;19.55;;;14.13;;
57561;SDS011;43397;51.530;5.974;2022-10-30T09:43:50;21.40;;;13.77;;
57561;SDS011;43397;51.530;5.974;2022-10-30T09:46:34;21.55;;;13.18;;
57561;SDS011;43397;51.530;5.974;2022-10-30T09:52:11;24.52;;;13.10;;
57561;SDS011;43397;51.530;5.974;2022-10-30T09:54:49;23.35;;;13.18;;
57561;SDS011;43397;51.530;5.974;2022-10-30T09:57:29;25.27;;;13.23;;
57561;SDS011;43397;51.530;5.974;2022-10-30T10:00:04;20.40;;;12.77;;
57561;SDS011;43397;51.530;5.974;2022-10-30T10:02:34;19.33;;;12.98;;
57561;SDS011;43397;51.530;5.974;2022-10-30T10:05:11;19.45;;;12.73;;
57561;SDS011;43397;51.530;5.974;2022-10-30T10:07:41;17.08;;;12.50;;
57561;SDS011;43397;51.530;5.974;2022-10-30T10:10:10;18.27;;;12.52;;
57561;SDS011;43397;51.530;5.974;2022-10-30T10:12:42;19.83;;;12.38;;
57561;SDS011;43397;51.530;5.974;2022-10-30T10:15:13;18.25;;;12.82;;
57561;SDS011;43397;51.530;5.974;2022-10-30T10:17:45;19.05;;;11.85;;
57561;SDS011;43397;51.530;5.974;2022-10-30T10:20:13;23.98;;;12.10;;
57561;SDS011;43397;51.530;5.974;2022-10-30T10:22:42;18.98;;;11.98;;
57561;SDS011;43397;51.530;5.974;2022-10-30T10:25:13;20.48;;;10.75;;
57561;SDS011;43397;51.530;5.974;2022-10-30T10:30:16;20.25;;;10.32;;
57561;SDS011;43397;51.530;5.974;2022-10-30T10:35:31;19.58;;;9.60;;
57561;SDS011;43397;51.530;5.974;2022-10-30T10:38:13;17.90;;;9.00;;
57561;SDS011;43397;51.530;5.974;2022-10-30T10:40:51;20.38;;;9.10;;
57561;SDS011;43397;51.530;5.974;2022-10-30T10:43:26;17.80;;;9.68;;
57561;SDS011;43397;51.530;5.974;2022-10-30T10:46:10;16.98;;;9.43;;
57561;SDS011;43397;51.530;5.974;2022-10-30T10:48:50;19.25;;;9.65;;
57561;SDS011;43397;51.530;5.974;2022-10-30T10:51:26;13.75;;;9.10;;
57561;SDS011;43397;51.530;5.974;2022-10-30T10:53:58;17.25;;;9.25;;
57561;SDS011;43397;51.530;5.974;2022-10-30T10:56:30;18.88;;;9.43;;
57561;SDS011;43397;51.530;5.974;2022-10-30T10:58:59;16.02;;;8.50;;
57561;SDS011;43397;51.530;5.974;2022-10-30T11:01:30;15.48;;;8.57;;
57561;SDS011;43397;51.530;5.974;2022-10-30T11:04:02;16.45;;;8.80;;
57561;SDS011;43397;51.530;5.974;2022-10-30T11:06:31;15.55;;;8.05;;
57561;SDS011;43397;51.530;5.974;2022-10-30T11:09:04;17.23;;;8.52;;
57561;SDS011;43397;51.530;5.974;2022-10-30T11:11:38;19.95;;;8.82;;
57561;SDS011;43397;51.530;5.974;2022-10-30T11:14:07;18.70;;;8.90;;
57561;SDS011;43397;51.530;5.974;2022-10-30T11:16:42;11.13;;;7.82;;
57561;SDS011;43397;51.530;5.974;2022-10-30T11:19:16;18.25;;;8.57;;
57561;SDS011;43397;51.530;5.974;2022-10-30T11:21:42;17.63;;;8.50;;
57561;SDS011;43397;51.530;5.974;2022-10-30T11:24:24;15.70;;;8.48;;
57561;SDS011;43397;51.530;5.974;2022-10-30T11:26:52;15.40;;;9.45;;
57561;SDS011;43397;51.530;5.974;2022-10-30T11:29:19;18.10;;;10.02;;
57561;SDS011;43397;51.530;5.974;2022-10-30T11:31:59;18.15;;;9.18;;
57561;SDS011;43397;51.530;5.974;2022-10-30T11:34:30;16.55;;;8.48;;
57561;SDS011;43397;51.530;5.974;2022-10-30T11:36:57;17.10;;;8.68;;
57561;SDS011;43397;51.530;5.974;2022-10-30T11:39:25;15.63;;;8.80;;
57561;SDS011;43397;51.530;5.974;2022-10-30T11:41:59;16.60;;;9.00;;
57561;SDS011;43397;51.530;5.974;2022-10-30T11:44:28;17.52;;;9.35;;
57561;SDS011;43397;51.530;5.974;2022-10-30T11:46:58;17.02;;;9.90;;
57561;SDS011;43397;51.530;5.974;2022-10-30T11:49:26;17.98;;;9.20;;
57561;SDS011;43397;51.530;5.974;2022-10-30T11:51:57;13.57;;;8.45;;
57561;SDS011;43397;51.530;5.974;2022-10-30T11:54:24;18.63;;;8.65;;
57561;SDS011;43397;51.530;5.974;2022-10-30T11:56:51;14.57;;;7.70;;
57561;SDS011;43397;51.530;5.974;2022-10-30T11:59:18;16.08;;;8.07;;
57561;SDS011;43397;51.530;5.974;2022-10-30T12:01:57;14.95;;;8.23;;
57561;SDS011;43397;51.530;5.974;2022-10-30T12:04:26;14.90;;;8.48;;
57561;SDS011;43397;51.530;5.974;2022-10-30T12:07:05;18.63;;;8.05;;
57561;SDS011;43397;51.530;5.974;2022-10-30T12:09:32;19.63;;;9.10;;
57561;SDS011;43397;51.530;5.974;2022-10-30T12:12:08;15.75;;;8.05;;
57561;SDS011;43397;51.530;5.974;2022-10-30T12:14:40;14.85;;;7.88;;
57561;SDS011;43397;51.530;5.974;2022-10-30T12:17:07;16.88;;;7.82;;
57561;SDS011;43397;51.530;5.974;2022-10-30T12:19:43;17.73;;;8.68;;
57561;SDS011;43397;51.530;5.974;2022-10-30T12:22:11;14.05;;;8.57;;
57561;SDS011;43397;51.530;5.974;2022-10-30T12:24:48;17.65;;;8.43;;
57561;SDS011;43397;51.530;5.974;2022-10-30T12:27:14;22.20;;;8.02;;
57561;SDS011;43397;51.530;5.974;2022-10-30T12:29:42;16.52;;;7.72;;
57561;SDS011;43397;51.530;5.974;2022-10-30T12:32:25;13.93;;;7.22;;
57561;SDS011;43397;51.530;5.974;2022-10-30T12:34:58;17.95;;;6.95;;
57561;SDS011;43397;51.530;5.974;2022-10-30T12:37:28;18.55;;;7.43;;
57561;SDS011;43397;51.530;5.974;2022-10-30T12:39:59;18.02;;;6.93;;
57561;SDS011;43397;51.530;5.974;2022-10-30T12:42:28;12.75;;;6.80;;
57561;SDS011;43397;51.530;5.974;2022-10-30T12:45:06;16.60;;;7.22;;
57561;SDS011;43397;51.530;5.974;2022-10-30T12:47:40;14.55;;;7.13;;
57561;SDS011;43397;51.530;5.974;2022-10-30T12:50:13;13.23;;;7.25;;
57561;SDS011;43397;51.530;5.974;2022-10-30T12:52:44;13.55;;;7.28;;
57561;SDS011;43397;51.530;5.974;2022-10-30T12:55:16;15.32;;;6.35;;
57561;SDS011;43397;51.530;5.974;2022-10-30T12:57:46;14.60;;;7.18;;
57561;SDS011;43397;51.530;5.974;2022-10-30T13:00:17;14.13;;;7.00;;
57561;SDS011;43397;51.530;5.974;2022-10-30T13:02:47;15.70;;;7.15;;
57561;SDS011;43397;51.530;5.974;2022-10-30T13:05:25;14.88;;;7.25;;
57561;SDS011;43397;51.530;5.974;2022-10-30T13:08:00;14.75;;;7.00;;
57561;SDS011;43397;51.530;5.974;2022-10-30T13:10:36;17.95;;;7.97;;
57561;SDS011;43397;51.530;5.974;2022-10-30T13:13:08;18.25;;;7.45;;
57561;SDS011;43397;51.530;5.974;2022-10-30T13:15:37;14.18;;;8.38;;
57561;SDS011;43397;51.530;5.974;2022-10-30T13:18:13;17.08;;;7.55;;
57561;SDS011;43397;51.530;5.974;2022-10-30T13:20:42;15.55;;;7.60;;
57561;SDS011;43397;51.530;5.974;2022-10-30T13:23:14;16.20;;;7.45;;
57561;SDS011;43397;51.530;5.974;2022-10-30T13:25:54;15.68;;;7.70;;
57561;SDS011;43397;51.530;5.974;2022-10-30T13:28:32;17.35;;;7.70;;
57561;SDS011;43397;51.530;5.974;2022-10-30T13:31:06;16.75;;;7.82;;
57561;SDS011;43397;51.530;5.974;2022-10-30T13:33:41;16.73;;;7.88;;
57561;SDS011;43397;51.530;5.974;2022-10-30T13:36:16;13.50;;;8.07;;
57561;SDS011;43397;51.530;5.974;2022-10-30T13:38:50;16.40;;;8.52;;
57561;SDS011;43397;51.530;5.974;2022-10-30T13:41:24;16.85;;;7.15;;
57561;SDS011;43397;51.530;5.974;2022-10-30T13:43:59;15.93;;;8.00;;
57561;SDS011;43397;51.530;5.974;2022-10-30T13:46:36;12.07;;;6.88;;
57561;SDS011;43397;51.530;5.974;2022-10-30T13:49:22;14.52;;;7.07;;
57561;SDS011;43397;51.530;5.974;2022-10-30T13:51:56;11.98;;;6.45;;
57561;SDS011;43397;51.530;5.974;2022-10-30T13:54:30;13.95;;;7.22;;
57561;SDS011;43397;51.530;5.974;2022-10-30T13:57:00;13.05;;;6.90;;
57561;SDS011;43397;51.530;5.974;2022-10-30T13:59:43;13.25;;;6.15;;
57561;SDS011;43397;51.530;5.974;2022-10-30T14:02:28;14.82;;;6.85;;
57561;SDS011;43397;51.530;5.974;2022-10-30T14:05:12;15.02;;;6.63;;
57561;SDS011;43397;51.530;5.974;2022-10-30T14:07:49;17.30;;;6.50;;
57561;SDS011;43397;51.530;5.974;2022-10-30T14:10:25;15.20;;;7.47;;
57561;SDS011;43397;51.530;5.974;2022-10-30T14:13:06;13.38;;;7.03;;
57561;SDS011;43397;51.530;5.974;2022-10-30T14:15:41;12.48;;;5.93;;
57561;SDS011;43397;51.530;5.974;2022-10-30T14:20:55;13.98;;;6.85;;
57561;SDS011;43397;51.530;5.974;2022-10-30T14:23:22;15.50;;;6.97;;
57561;SDS011;43397;51.530;5.974;2022-10-30T14:28:47;15.65;;;7.60;;
57561;SDS011;43397;51.530;5.974;2022-10-30T14:31:15;16.70;;;7.57;;
57561;SDS011;43397;51.530;5.974;2022-10-30T14:33:44;15.38;;;8.10;;
57561;SDS011;43397;51.530;5.974;2022-10-30T14:36:13;16.80;;;8.30;;
57561;SDS011;43397;51.530;5.974;2022-10-30T14:38:52;14.93;;;8.05;;
57561;SDS011;43397;51.530;5.974;2022-10-30T14:41:21;18.20;;;7.40;;
57561;SDS011;43397;51.530;5.974;2022-10-30T14:44:20;16.75;;;8.40;;
57561;SDS011;43397;51.530;5.974;2022-10-30T14:47:14;15.70;;;7.22;;
57561;SDS011;43397;51.530;5.974;2022-10-30T14:49:54;18.60;;;7.53;;
57561;SDS011;43397;51.530;5.974;2022-10-30T14:52:31;15.50;;;7.60;;
57561;SDS011;43397;51.530;5.974;2022-10-30T14:55:14;14.18;;;8.05;;
57561;SDS011;43397;51.530;5.974;2022-10-30T14:57:53;17.60;;;8.85;;